sensor_id;sensor_type;location;lat;lon;timestamp;temperature;humidity
48860;DHT22;34679;51.436;-2.518;2023-12-04T00:01:18;8.70;99.90
48860;DHT22;34679;51.436;-2.518;2023-12-04T00:03:44;8.70;99.90
48860;DHT22;34679;51.436;-2.518;2023-12-04T00:06:11;8.70;99.90
48860;DHT22;34679;51.436;-2.518;2023-12-04T00:08:37;8.70;99.90
48860;DHT22;34679;51.436;-2.518;2023-12-04T00:11:04;8.70;99.90
48860;DHT22;34679;51.436;-2.518;2023-12-04T00:13:29;8.60;99.90
48860;DHT22;34679;51.436;-2.518;2023-12-04T00:15:55;8.60;99.90
48860;DHT22;34679;51.436;-2.518;2023-12-04T00:18:21;8.60;99.90
48860;DHT22;34679;51.436;-2.518;2023-12-04T00:20:46;8.60;99.90
48860;DHT22;34679;51.436;-2.518;2023-12-04T00:23:12;8.60;99.90
48860;DHT22;34679;51.436;-2.518;2023-12-04T00:25:38;8.60;99.90
48860;DHT22;34679;51.436;-2.518;2023-12-04T00:28:04;8.60;99.90
48860;DHT22;34679;51.436;-2.518;2023-12-04T00:30:29;8.60;99.90
48860;DHT22;34679;51.436;-2.518;2023-12-04T00:32:55;8.60;99.90
48860;DHT22;34679;51.436;-2.518;2023-12-04T00:35:20;8.60;99.90
48860;DHT22;34679;51.436;-2.518;2023-12-04T00:37:46;8.50;99.90
48860;DHT22;34679;51.436;-2.518;2023-12-04T00:40:12;8.50;99.90
48860;DHT22;34679;51.436;-2.518;2023-12-04T00:42:38;8.50;99.90
48860;DHT22;34679;51.436;-2.518;2023-12-04T00:45:04;8.50;99.90
48860;DHT22;34679;51.436;-2.518;2023-12-04T00:47:30;8.50;99.90
48860;DHT22;34679;51.436;-2.518;2023-12-04T00:49:55;8.40;99.90
48860;DHT22;34679;51.436;-2.518;2023-12-04T00:52:21;8.40;99.90
48860;DHT22;34679;51.436;-2.518;2023-12-04T00:54:47;8.40;99.90
48860;DHT22;34679;51.436;-2.518;2023-12-04T00:57:12;8.40;99.90
48860;DHT22;34679;51.436;-2.518;2023-12-04T00:59:38;8.40;99.90
48860;DHT22;34679;51.436;-2.518;2023-12-04T01:02:04;8.40;99.90
48860;DHT22;34679;51.436;-2.518;2023-12-04T01:04:31;8.40;99.90
48860;DHT22;34679;51.436;-2.518;2023-12-04T01:06:56;8.30;99.90
48860;DHT22;34679;51.436;-2.518;2023-12-04T01:09:22;8.30;99.90
48860;DHT22;34679;51.436;-2.518;2023-12-04T01:11:53;8.30;99.90
48860;DHT22;34679;51.436;-2.518;2023-12-04T01:14:19;8.30;99.90
48860;DHT22;34679;51.436;-2.518;2023-12-04T01:16:45;8.30;99.90
48860;DHT22;34679;51.436;-2.518;2023-12-04T01:19:11;8.20;99.90
48860;DHT22;34679;51.436;-2.518;2023-12-04T01:21:37;8.30;99.90
48860;DHT22;34679;51.436;-2.518;2023-12-04T01:24:02;8.20;99.90
48860;DHT22;34679;51.436;-2.518;2023-12-04T01:26:28;8.30;99.90
48860;DHT22;34679;51.436;-2.518;2023-12-04T01:28:55;8.30;99.90
48860;DHT22;34679;51.436;-2.518;2023-12-04T01:31:20;8.30;99.90
48860;DHT22;34679;51.436;-2.518;2023-12-04T01:33:46;8.30;99.90
48860;DHT22;34679;51.436;-2.518;2023-12-04T01:36:12;8.30;99.90
48860;DHT22;34679;51.436;-2.518;2023-12-04T01:38:38;8.30;99.90
48860;DHT22;34679;51.436;-2.518;2023-12-04T01:41:04;8.20;99.90
48860;DHT22;34679;51.436;-2.518;2023-12-04T01:43:30;8.30;99.90
48860;DHT22;34679;51.436;-2.518;2023-12-04T01:45:56;8.30;99.90
48860;DHT22;34679;51.436;-2.518;2023-12-04T01:48:23;8.30;99.90
48860;DHT22;34679;51.436;-2.518;2023-12-04T01:50:51;8.30;99.90
48860;DHT22;34679;51.436;-2.518;2023-12-04T01:53:17;8.30;99.90
48860;DHT22;34679;51.436;-2.518;2023-12-04T01:55:43;8.30;99.90
48860;DHT22;34679;51.436;-2.518;2023-12-04T01:58:09;8.30;99.90
48860;DHT22;34679;51.436;-2.518;2023-12-04T02:00:35;8.30;99.90
48860;DHT22;34679;51.436;-2.518;2023-12-04T02:03:01;8.30;99.90
48860;DHT22;34679;51.436;-2.518;2023-12-04T02:05:27;8.30;99.90
48860;DHT22;34679;51.436;-2.518;2023-12-04T02:07:53;7.60;99.90
48860;DHT22;34679;51.436;-2.518;2023-12-04T02:10:21;8.30;99.90
48860;DHT22;34679;51.436;-2.518;2023-12-04T02:12:47;8.30;99.90
48860;DHT22;34679;51.436;-2.518;2023-12-04T02:15:13;8.30;99.90
48860;DHT22;34679;51.436;-2.518;2023-12-04T02:17:39;8.30;99.90
48860;DHT22;34679;51.436;-2.518;2023-12-04T02:20:06;8.30;99.90
48860;DHT22;34679;51.436;-2.518;2023-12-04T02:22:33;8.30;99.90
48860;DHT22;34679;51.436;-2.518;2023-12-04T02:24:59;8.30;99.90
48860;DHT22;34679;51.436;-2.518;2023-12-04T02:27:33;8.30;99.90
48860;DHT22;34679;51.436;-2.518;2023-12-04T02:30:00;8.30;99.90
48860;DHT22;34679;51.436;-2.518;2023-12-04T02:32:30;8.30;99.90
48860;DHT22;34679;51.436;-2.518;2023-12-04T02:34:57;8.30;99.90
48860;DHT22;34679;51.436;-2.518;2023-12-04T02:37:26;8.20;99.90
48860;DHT22;34679;51.436;-2.518;2023-12-04T02:39:52;8.40;99.90
48860;DHT22;34679;51.436;-2.518;2023-12-04T02:42:20;8.40;99.90
48860;DHT22;34679;51.436;-2.518;2023-12-04T02:44:46;8.40;99.90
48860;DHT22;34679;51.436;-2.518;2023-12-04T02:47:12;8.40;99.90
48860;DHT22;34679;51.436;-2.518;2023-12-04T02:49:38;8.40;99.90
48860;DHT22;34679;51.436;-2.518;2023-12-04T02:52:03;8.50;99.90
48860;DHT22;34679;51.436;-2.518;2023-12-04T02:54:29;8.40;99.90
48860;DHT22;34679;51.436;-2.518;2023-12-04T02:56:55;8.50;99.90
48860;DHT22;34679;51.436;-2.518;2023-12-04T02:59:20;8.50;99.90
48860;DHT22;34679;51.436;-2.518;2023-12-04T03:01:46;8.50;99.90
48860;DHT22;34679;51.436;-2.518;2023-12-04T03:04:12;8.50;99.90
48860;DHT22;34679;51.436;-2.518;2023-12-04T03:06:37;8.50;99.90
48860;DHT22;34679;51.436;-2.518;2023-12-04T03:09:03;8.50;99.90
48860;DHT22;34679;51.436;-2.518;2023-12-04T03:11:30;8.60;99.90
48860;DHT22;34679;51.436;-2.518;2023-12-04T03:13:56;8.60;99.90
48860;DHT22;34679;51.436;-2.518;2023-12-04T03:16:22;8.50;99.90
48860;DHT22;34679;51.436;-2.518;2023-12-04T03:18:48;8.60;99.90
48860;DHT22;34679;51.436;-2.518;2023-12-04T03:21:13;8.60;99.90
48860;DHT22;34679;51.436;-2.518;2023-12-04T03:23:39;8.60;99.90
48860;DHT22;34679;51.436;-2.518;2023-12-04T03:26:05;8.60;99.90
48860;DHT22;34679;51.436;-2.518;2023-12-04T03:28:30;8.70;99.90
48860;DHT22;34679;51.436;-2.518;2023-12-04T03:30:56;8.70;99.90
48860;DHT22;34679;51.436;-2.518;2023-12-04T03:33:22;8.70;99.90
48860;DHT22;34679;51.436;-2.518;2023-12-04T03:35:47;8.70;99.90
48860;DHT22;34679;51.436;-2.518;2023-12-04T03:38:13;8.80;99.90
48860;DHT22;34679;51.436;-2.518;2023-12-04T03:40:39;8.80;99.90
48860;DHT22;34679;51.436;-2.518;2023-12-04T03:43:04;8.80;99.90
48860;DHT22;34679;51.436;-2.518;2023-12-04T03:45:30;8.80;99.90
48860;DHT22;34679;51.436;-2.518;2023-12-04T03:47:56;8.80;99.90
48860;DHT22;34679;51.436;-2.518;2023-12-04T03:50:21;8.80;99.90
48860;DHT22;34679;51.436;-2.518;2023-12-04T03:52:47;8.80;99.90
48860;DHT22;34679;51.436;-2.518;2023-12-04T03:55:13;8.70;99.90
48860;DHT22;34679;51.436;-2.518;2023-12-04T03:57:39;8.80;99.90
48860;DHT22;34679;51.436;-2.518;2023-12-04T04:00:05;8.80;99.90
48860;DHT22;34679;51.436;-2.518;2023-12-04T04:02:31;8.80;99.90
48860;DHT22;34679;51.436;-2.518;2023-12-04T04:04:56;8.80;99.90
48860;DHT22;34679;51.436;-2.518;2023-12-04T04:07:22;8.80;99.90
48860;DHT22;34679;51.436;-2.518;2023-12-04T04:09:48;8.80;99.90
48860;DHT22;34679;51.436;-2.518;2023-12-04T04:12:13;8.80;99.90
48860;DHT22;34679;51.436;-2.518;2023-12-04T04:14:39;8.80;99.90
48860;DHT22;34679;51.436;-2.518;2023-12-04T04:17:05;8.80;99.90
48860;DHT22;34679;51.436;-2.518;2023-12-04T04:19:30;8.70;99.90
48860;DHT22;34679;51.436;-2.518;2023-12-04T04:21:56;8.70;99.90
48860;DHT22;34679;51.436;-2.518;2023-12-04T04:24:22;8.70;99.90
48860;DHT22;34679;51.436;-2.518;2023-12-04T04:26:47;8.70;99.90
48860;DHT22;34679;51.436;-2.518;2023-12-04T04:29:13;8.60;99.90
48860;DHT22;34679;51.436;-2.518;2023-12-04T04:31:39;8.60;99.90
48860;DHT22;34679;51.436;-2.518;2023-12-04T04:34:04;8.60;99.90
48860;DHT22;34679;51.436;-2.518;2023-12-04T04:36:30;8.50;99.90
48860;DHT22;34679;51.436;-2.518;2023-12-04T04:38:55;8.60;99.90
48860;DHT22;34679;51.436;-2.518;2023-12-04T04:41:21;8.60;99.90
48860;DHT22;34679;51.436;-2.518;2023-12-04T04:43:47;8.50;99.90
48860;DHT22;34679;51.436;-2.518;2023-12-04T04:46:12;8.50;99.90
48860;DHT22;34679;51.436;-2.518;2023-12-04T04:48:39;8.50;99.90
48860;DHT22;34679;51.436;-2.518;2023-12-04T04:51:05;8.50;99.90
48860;DHT22;34679;51.436;-2.518;2023-12-04T04:53:31;8.50;99.90
48860;DHT22;34679;51.436;-2.518;2023-12-04T04:55:56;8.60;99.90
48860;DHT22;34679;51.436;-2.518;2023-12-04T04:58:22;8.60;99.90
48860;DHT22;34679;51.436;-2.518;2023-12-04T05:00:48;8.60;99.90
48860;DHT22;34679;51.436;-2.518;2023-12-04T05:03:13;8.60;99.90
48860;DHT22;34679;51.436;-2.518;2023-12-04T05:05:39;8.70;99.90
48860;DHT22;34679;51.436;-2.518;2023-12-04T05:08:05;8.70;99.90
48860;DHT22;34679;51.436;-2.518;2023-12-04T05:10:30;8.70;99.90
48860;DHT22;34679;51.436;-2.518;2023-12-04T05:12:56;8.70;99.90
48860;DHT22;34679;51.436;-2.518;2023-12-04T05:15:22;8.60;99.90
48860;DHT22;34679;51.436;-2.518;2023-12-04T05:17:47;8.50;99.90
48860;DHT22;34679;51.436;-2.518;2023-12-04T05:20:13;8.50;99.90
48860;DHT22;34679;51.436;-2.518;2023-12-04T05:22:40;8.60;99.90
48860;DHT22;34679;51.436;-2.518;2023-12-04T05:25:06;8.60;99.90
48860;DHT22;34679;51.436;-2.518;2023-12-04T05:27:32;8.70;99.90
48860;DHT22;34679;51.436;-2.518;2023-12-04T05:29:57;8.70;99.90
48860;DHT22;34679;51.436;-2.518;2023-12-04T05:32:23;8.70;99.90
48860;DHT22;34679;51.436;-2.518;2023-12-04T05:34:49;8.70;99.90
48860;DHT22;34679;51.436;-2.518;2023-12-04T05:37:14;8.70;99.90
48860;DHT22;34679;51.436;-2.518;2023-12-04T05:39:41;8.70;99.90
48860;DHT22;34679;51.436;-2.518;2023-12-04T05:42:07;8.70;99.90
48860;DHT22;34679;51.436;-2.518;2023-12-04T05:44:33;8.70;99.90
48860;DHT22;34679;51.436;-2.518;2023-12-04T05:47:00;8.70;99.90
48860;DHT22;34679;51.436;-2.518;2023-12-04T05:49:25;8.60;99.90
48860;DHT22;34679;51.436;-2.518;2023-12-04T05:51:51;8.70;99.90
48860;DHT22;34679;51.436;-2.518;2023-12-04T05:54:17;8.60;99.90
48860;DHT22;34679;51.436;-2.518;2023-12-04T05:56:42;8.60;99.90
48860;DHT22;34679;51.436;-2.518;2023-12-04T05:59:08;8.60;99.90
48860;DHT22;34679;51.436;-2.518;2023-12-04T06:01:34;8.70;99.90
48860;DHT22;34679;51.436;-2.518;2023-12-04T06:03:59;8.70;99.90
48860;DHT22;34679;51.436;-2.518;2023-12-04T06:06:25;8.60;99.90
48860;DHT22;34679;51.436;-2.518;2023-12-04T06:08:52;8.60;99.90
48860;DHT22;34679;51.436;-2.518;2023-12-04T06:11:18;8.60;99.90
48860;DHT22;34679;51.436;-2.518;2023-12-04T06:13:43;8.60;99.90
48860;DHT22;34679;51.436;-2.518;2023-12-04T06:16:09;8.60;99.90
48860;DHT22;34679;51.436;-2.518;2023-12-04T06:18:35;8.60;99.90
48860;DHT22;34679;51.436;-2.518;2023-12-04T06:21:01;8.60;99.90
48860;DHT22;34679;51.436;-2.518;2023-12-04T06:23:27;8.60;99.90
48860;DHT22;34679;51.436;-2.518;2023-12-04T06:25:53;8.60;99.90
48860;DHT22;34679;51.436;-2.518;2023-12-04T06:28:19;8.70;99.90
48860;DHT22;34679;51.436;-2.518;2023-12-04T06:30:46;8.80;99.90
48860;DHT22;34679;51.436;-2.518;2023-12-04T06:33:12;8.80;99.90
48860;DHT22;34679;51.436;-2.518;2023-12-04T06:35:40;8.80;99.90
48860;DHT22;34679;51.436;-2.518;2023-12-04T06:38:14;8.80;99.90
48860;DHT22;34679;51.436;-2.518;2023-12-04T06:40:40;8.80;99.90
48860;DHT22;34679;51.436;-2.518;2023-12-04T06:43:06;8.80;99.90
48860;DHT22;34679;51.436;-2.518;2023-12-04T06:45:33;8.80;99.90
48860;DHT22;34679;51.436;-2.518;2023-12-04T06:47:59;8.80;99.90
48860;DHT22;34679;51.436;-2.518;2023-12-04T06:50:26;8.80;99.90
48860;DHT22;34679;51.436;-2.518;2023-12-04T06:52:51;8.90;99.90
48860;DHT22;34679;51.436;-2.518;2023-12-04T06:55:17;8.80;99.90
48860;DHT22;34679;51.436;-2.518;2023-12-04T06:57:43;8.80;99.90
48860;DHT22;34679;51.436;-2.518;2023-12-04T07:00:09;8.80;99.90
48860;DHT22;34679;51.436;-2.518;2023-12-04T07:02:43;8.80;99.90
48860;DHT22;34679;51.436;-2.518;2023-12-04T07:05:09;8.70;99.90
48860;DHT22;34679;51.436;-2.518;2023-12-04T07:07:34;8.70;99.90
48860;DHT22;34679;51.436;-2.518;2023-12-04T07:10:00;8.70;99.90
48860;DHT22;34679;51.436;-2.518;2023-12-04T07:12:26;8.60;99.90
48860;DHT22;34679;51.436;-2.518;2023-12-04T07:14:51;8.60;99.90
48860;DHT22;34679;51.436;-2.518;2023-12-04T07:17:17;8.60;99.90
48860;DHT22;34679;51.436;-2.518;2023-12-04T07:19:43;8.60;99.90
48860;DHT22;34679;51.436;-2.518;2023-12-04T07:22:09;8.60;99.90
48860;DHT22;34679;51.436;-2.518;2023-12-04T07:24:34;8.70;99.90
48860;DHT22;34679;51.436;-2.518;2023-12-04T07:27:00;8.70;99.90
48860;DHT22;34679;51.436;-2.518;2023-12-04T07:29:26;8.80;99.90
48860;DHT22;34679;51.436;-2.518;2023-12-04T07:31:51;8.80;99.90
48860;DHT22;34679;51.436;-2.518;2023-12-04T07:34:17;8.80;99.90
48860;DHT22;34679;51.436;-2.518;2023-12-04T07:36:43;8.80;99.90
48860;DHT22;34679;51.436;-2.518;2023-12-04T07:39:10;8.80;99.90
48860;DHT22;34679;51.436;-2.518;2023-12-04T07:41:36;8.70;99.90
48860;DHT22;34679;51.436;-2.518;2023-12-04T07:44:02;8.70;99.90
48860;DHT22;34679;51.436;-2.518;2023-12-04T07:46:29;8.70;99.90
48860;DHT22;34679;51.436;-2.518;2023-12-04T07:48:55;8.80;99.90
48860;DHT22;34679;51.436;-2.518;2023-12-04T07:51:20;8.80;99.90
48860;DHT22;34679;51.436;-2.518;2023-12-04T07:53:46;8.90;99.90
48860;DHT22;34679;51.436;-2.518;2023-12-04T07:56:13;8.90;99.90
48860;DHT22;34679;51.436;-2.518;2023-12-04T07:58:38;9.00;99.90
48860;DHT22;34679;51.436;-2.518;2023-12-04T08:01:04;8.90;99.90
48860;DHT22;34679;51.436;-2.518;2023-12-04T08:03:31;8.90;99.90
48860;DHT22;34679;51.436;-2.518;2023-12-04T08:05:57;9.00;99.90
48860;DHT22;34679;51.436;-2.518;2023-12-04T08:08:23;9.00;99.90
48860;DHT22;34679;51.436;-2.518;2023-12-04T08:10:50;9.00;99.90
48860;DHT22;34679;51.436;-2.518;2023-12-04T08:13:16;9.00;99.90
48860;DHT22;34679;51.436;-2.518;2023-12-04T08:15:43;8.90;99.90
48860;DHT22;34679;51.436;-2.518;2023-12-04T08:18:09;8.90;99.90
48860;DHT22;34679;51.436;-2.518;2023-12-04T08:20:34;8.90;99.90
48860;DHT22;34679;51.436;-2.518;2023-12-04T08:23:00;8.90;99.90
48860;DHT22;34679;51.436;-2.518;2023-12-04T08:25:26;9.00;99.90
48860;DHT22;34679;51.436;-2.518;2023-12-04T08:27:51;9.00;99.90
48860;DHT22;34679;51.436;-2.518;2023-12-04T08:30:17;9.00;99.90
48860;DHT22;34679;51.436;-2.518;2023-12-04T08:32:43;9.00;99.90
48860;DHT22;34679;51.436;-2.518;2023-12-04T08:35:09;9.00;99.90
48860;DHT22;34679;51.436;-2.518;2023-12-04T08:37:35;9.00;99.90
48860;DHT22;34679;51.436;-2.518;2023-12-04T08:40:00;9.00;99.90
48860;DHT22;34679;51.436;-2.518;2023-12-04T08:42:28;9.00;99.90
48860;DHT22;34679;51.436;-2.518;2023-12-04T08:44:54;9.00;99.90
48860;DHT22;34679;51.436;-2.518;2023-12-04T08:47:20;9.00;99.90
48860;DHT22;34679;51.436;-2.518;2023-12-04T08:49:46;9.00;99.90
48860;DHT22;34679;51.436;-2.518;2023-12-04T08:52:12;9.00;99.90
48860;DHT22;34679;51.436;-2.518;2023-12-04T08:54:41;9.00;99.90
48860;DHT22;34679;51.436;-2.518;2023-12-04T08:57:08;9.00;99.90
48860;DHT22;34679;51.436;-2.518;2023-12-04T08:59:35;9.10;99.90
48860;DHT22;34679;51.436;-2.518;2023-12-04T09:02:00;9.00;99.90
48860;DHT22;34679;51.436;-2.518;2023-12-04T09:04:32;9.10;99.90
48860;DHT22;34679;51.436;-2.518;2023-12-04T09:06:58;9.00;99.90
48860;DHT22;34679;51.436;-2.518;2023-12-04T09:09:24;9.10;99.90
48860;DHT22;34679;51.436;-2.518;2023-12-04T09:11:49;9.00;99.90
48860;DHT22;34679;51.436;-2.518;2023-12-04T09:14:15;9.10;99.90
48860;DHT22;34679;51.436;-2.518;2023-12-04T09:16:41;9.10;99.90
48860;DHT22;34679;51.436;-2.518;2023-12-04T09:19:07;9.10;99.90
48860;DHT22;34679;51.436;-2.518;2023-12-04T09:21:33;9.10;99.90
48860;DHT22;34679;51.436;-2.518;2023-12-04T09:23:59;9.20;99.90
48860;DHT22;34679;51.436;-2.518;2023-12-04T09:26:24;9.20;99.90
48860;DHT22;34679;51.436;-2.518;2023-12-04T09:28:50;9.20;99.90
48860;DHT22;34679;51.436;-2.518;2023-12-04T09:31:16;9.30;99.90
48860;DHT22;34679;51.436;-2.518;2023-12-04T09:33:42;9.30;99.90
48860;DHT22;34679;51.436;-2.518;2023-12-04T09:36:08;9.40;99.90
48860;DHT22;34679;51.436;-2.518;2023-12-04T09:38:34;9.40;99.90
48860;DHT22;34679;51.436;-2.518;2023-12-04T09:41:01;9.50;99.90
48860;DHT22;34679;51.436;-2.518;2023-12-04T09:43:31;9.50;99.90
48860;DHT22;34679;51.436;-2.518;2023-12-04T09:45:58;9.60;99.90
48860;DHT22;34679;51.436;-2.518;2023-12-04T09:48:27;9.50;99.90
48860;DHT22;34679;51.436;-2.518;2023-12-04T09:50:58;9.50;99.90
48860;DHT22;34679;51.436;-2.518;2023-12-04T09:53:28;9.50;99.90
48860;DHT22;34679;51.436;-2.518;2023-12-04T09:55:57;9.50;99.90
48860;DHT22;34679;51.436;-2.518;2023-12-04T09:58:26;9.40;99.90
48860;DHT22;34679;51.436;-2.518;2023-12-04T10:00:53;9.40;99.90
48860;DHT22;34679;51.436;-2.518;2023-12-04T10:03:20;9.40;99.90
48860;DHT22;34679;51.436;-2.518;2023-12-04T10:05:46;9.50;99.90
48860;DHT22;34679;51.436;-2.518;2023-12-04T10:08:12;9.40;99.90
48860;DHT22;34679;51.436;-2.518;2023-12-04T10:10:38;9.50;99.90
48860;DHT22;34679;51.436;-2.518;2023-12-04T10:13:03;9.40;99.90
48860;DHT22;34679;51.436;-2.518;2023-12-04T10:15:29;9.40;99.90
48860;DHT22;34679;51.436;-2.518;2023-12-04T10:17:55;9.50;99.90
48860;DHT22;34679;51.436;-2.518;2023-12-04T10:20:21;9.40;99.90
48860;DHT22;34679;51.436;-2.518;2023-12-04T10:22:58;9.30;99.90
48860;DHT22;34679;51.436;-2.518;2023-12-04T10:25:25;9.40;99.90
48860;DHT22;34679;51.436;-2.518;2023-12-04T10:27:53;9.40;99.90
48860;DHT22;34679;51.436;-2.518;2023-12-04T10:30:29;9.30;99.90
48860;DHT22;34679;51.436;-2.518;2023-12-04T10:33:04;9.40;99.90
48860;DHT22;34679;51.436;-2.518;2023-12-04T10:35:31;9.40;99.90
48860;DHT22;34679;51.436;-2.518;2023-12-04T10:37:57;9.40;99.90
48860;DHT22;34679;51.436;-2.518;2023-12-04T10:40:25;9.30;99.90
48860;DHT22;34679;51.436;-2.518;2023-12-04T10:42:51;9.30;99.90
48860;DHT22;34679;51.436;-2.518;2023-12-04T10:45:17;9.30;99.90
48860;DHT22;34679;51.436;-2.518;2023-12-04T10:47:44;9.30;99.90
48860;DHT22;34679;51.436;-2.518;2023-12-04T10:50:11;9.30;99.90
48860;DHT22;34679;51.436;-2.518;2023-12-04T10:52:39;9.30;99.90
48860;DHT22;34679;51.436;-2.518;2023-12-04T10:55:06;9.30;99.90
48860;DHT22;34679;51.436;-2.518;2023-12-04T10:57:37;9.30;99.90
48860;DHT22;34679;51.436;-2.518;2023-12-04T11:00:04;9.30;99.90
48860;DHT22;34679;51.436;-2.518;2023-12-04T11:02:34;9.30;99.90
48860;DHT22;34679;51.436;-2.518;2023-12-04T11:05:07;9.20;99.90
48860;DHT22;34679;51.436;-2.518;2023-12-04T11:07:56;9.20;99.90
48860;DHT22;34679;51.436;-2.518;2023-12-04T11:10:23;9.20;99.90
48860;DHT22;34679;51.436;-2.518;2023-12-04T11:13:00;9.20;99.90
48860;DHT22;34679;51.436;-2.518;2023-12-04T11:15:29;9.20;99.90
48860;DHT22;34679;51.436;-2.518;2023-12-04T11:17:59;9.20;99.90
48860;DHT22;34679;51.436;-2.518;2023-12-04T11:20:28;9.30;99.90
48860;DHT22;34679;51.436;-2.518;2023-12-04T11:22:55;9.30;99.90
48860;DHT22;34679;51.436;-2.518;2023-12-04T11:25:23;9.20;99.90
48860;DHT22;34679;51.436;-2.518;2023-12-04T11:27:53;9.20;99.90
48860;DHT22;34679;51.436;-2.518;2023-12-04T11:30:20;9.30;99.90
48860;DHT22;34679;51.436;-2.518;2023-12-04T11:32:48;9.30;99.90
48860;DHT22;34679;51.436;-2.518;2023-12-04T11:35:18;9.30;99.90
48860;DHT22;34679;51.436;-2.518;2023-12-04T11:37:47;9.30;99.90
48860;DHT22;34679;51.436;-2.518;2023-12-04T11:40:15;9.20;99.90
48860;DHT22;34679;51.436;-2.518;2023-12-04T11:42:41;9.20;99.90
48860;DHT22;34679;51.436;-2.518;2023-12-04T11:45:07;9.20;99.90
48860;DHT22;34679;51.436;-2.518;2023-12-04T11:48:00;9.20;99.90
48860;DHT22;34679;51.436;-2.518;2023-12-04T11:50:26;9.30;99.90
48860;DHT22;34679;51.436;-2.518;2023-12-04T11:52:52;9.20;99.90
48860;DHT22;34679;51.436;-2.518;2023-12-04T11:55:21;9.30;99.90
48860;DHT22;34679;51.436;-2.518;2023-12-04T11:57:49;9.20;99.90
48860;DHT22;34679;51.436;-2.518;2023-12-04T12:05:15;9.00;99.90
48860;DHT22;34679;51.436;-2.518;2023-12-04T12:07:41;8.70;99.90
48860;DHT22;34679;51.436;-2.518;2023-12-04T12:10:09;8.60;99.90
48860;DHT22;34679;51.436;-2.518;2023-12-04T12:12:35;8.50;99.90
48860;DHT22;34679;51.436;-2.518;2023-12-04T12:15:02;8.40;99.90
48860;DHT22;34679;51.436;-2.518;2023-12-04T12:17:27;8.30;99.90
48860;DHT22;34679;51.436;-2.518;2023-12-04T12:19:54;8.30;99.90
48860;DHT22;34679;51.436;-2.518;2023-12-04T12:22:23;8.20;99.90
48860;DHT22;34679;51.436;-2.518;2023-12-04T12:24:50;8.20;99.90
48860;DHT22;34679;51.436;-2.518;2023-12-04T12:27:15;8.20;99.90
48860;DHT22;34679;51.436;-2.518;2023-12-04T12:29:41;8.20;99.90
48860;DHT22;34679;51.436;-2.518;2023-12-04T12:32:07;8.00;99.90
48860;DHT22;34679;51.436;-2.518;2023-12-04T12:34:32;8.00;99.90
48860;DHT22;34679;51.436;-2.518;2023-12-04T12:37:02;7.90;99.90
48860;DHT22;34679;51.436;-2.518;2023-12-04T12:39:29;7.90;99.90
48860;DHT22;34679;51.436;-2.518;2023-12-04T12:41:55;7.90;99.90
48860;DHT22;34679;51.436;-2.518;2023-12-04T12:44:21;7.80;99.90
48860;DHT22;34679;51.436;-2.518;2023-12-04T12:46:48;7.70;99.90
48860;DHT22;34679;51.436;-2.518;2023-12-04T12:49:20;7.70;99.90
48860;DHT22;34679;51.436;-2.518;2023-12-04T12:51:46;7.60;99.90
48860;DHT22;34679;51.436;-2.518;2023-12-04T12:54:11;7.60;99.90
48860;DHT22;34679;51.436;-2.518;2023-12-04T12:56:37;7.60;99.90
48860;DHT22;34679;51.436;-2.518;2023-12-04T13:01:37;7.50;99.90
48860;DHT22;34679;51.436;-2.518;2023-12-04T13:04:02;7.40;99.90
48860;DHT22;34679;51.436;-2.518;2023-12-04T13:06:29;7.40;99.90
48860;DHT22;34679;51.436;-2.518;2023-12-04T13:08:54;7.30;99.90
48860;DHT22;34679;51.436;-2.518;2023-12-04T13:11:20;7.30;99.90
48860;DHT22;34679;51.436;-2.518;2023-12-04T13:13:46;7.30;99.90
48860;DHT22;34679;51.436;-2.518;2023-12-04T13:16:11;7.30;99.90
48860;DHT22;34679;51.436;-2.518;2023-12-04T13:18:37;7.30;99.90
48860;DHT22;34679;51.436;-2.518;2023-12-04T13:21:04;7.20;99.90
48860;DHT22;34679;51.436;-2.518;2023-12-04T13:23:30;7.20;99.90
48860;DHT22;34679;51.436;-2.518;2023-12-04T13:25:55;7.10;99.90
48860;DHT22;34679;51.436;-2.518;2023-12-04T13:28:21;7.10;99.90
48860;DHT22;34679;51.436;-2.518;2023-12-04T13:30:47;7.10;99.90
48860;DHT22;34679;51.436;-2.518;2023-12-04T13:33:12;7.10;99.90
48860;DHT22;34679;51.436;-2.518;2023-12-04T13:35:38;7.00;99.90
48860;DHT22;34679;51.436;-2.518;2023-12-04T13:38:04;7.00;99.90
48860;DHT22;34679;51.436;-2.518;2023-12-04T13:40:33;6.90;99.90
48860;DHT22;34679;51.436;-2.518;2023-12-04T13:43:00;6.90;99.90
48860;DHT22;34679;51.436;-2.518;2023-12-04T13:45:44;6.90;99.90
48860;DHT22;34679;51.436;-2.518;2023-12-04T13:48:10;6.90;99.90
48860;DHT22;34679;51.436;-2.518;2023-12-04T13:50:36;6.90;99.90
48860;DHT22;34679;51.436;-2.518;2023-12-04T13:53:02;6.80;99.90
48860;DHT22;34679;51.436;-2.518;2023-12-04T13:55:29;6.80;99.90
48860;DHT22;34679;51.436;-2.518;2023-12-04T13:58:23;6.80;99.90
48860;DHT22;34679;51.436;-2.518;2023-12-04T14:01:07;6.80;99.90
48860;DHT22;34679;51.436;-2.518;2023-12-04T14:03:43;6.80;99.90
48860;DHT22;34679;51.436;-2.518;2023-12-04T14:06:09;6.80;99.90
48860;DHT22;34679;51.436;-2.518;2023-12-04T14:08:35;6.70;99.90
48860;DHT22;34679;51.436;-2.518;2023-12-04T14:11:04;6.80;99.90
48860;DHT22;34679;51.436;-2.518;2023-12-04T14:13:32;6.70;99.90
48860;DHT22;34679;51.436;-2.518;2023-12-04T14:15:58;6.70;99.90
48860;DHT22;34679;51.436;-2.518;2023-12-04T14:18:24;6.70;99.90
48860;DHT22;34679;51.436;-2.518;2023-12-04T14:20:50;6.70;99.90
48860;DHT22;34679;51.436;-2.518;2023-12-04T14:23:16;6.70;99.90
48860;DHT22;34679;51.436;-2.518;2023-12-04T14:25:44;6.70;99.90
48860;DHT22;34679;51.436;-2.518;2023-12-04T14:28:10;6.70;99.90
48860;DHT22;34679;51.436;-2.518;2023-12-04T14:30:36;6.70;99.90
48860;DHT22;34679;51.436;-2.518;2023-12-04T14:33:02;6.70;99.90
48860;DHT22;34679;51.436;-2.518;2023-12-04T14:35:27;6.70;99.90
48860;DHT22;34679;51.436;-2.518;2023-12-04T14:37:53;6.70;99.90
48860;DHT22;34679;51.436;-2.518;2023-12-04T14:40:19;6.70;99.90
48860;DHT22;34679;51.436;-2.518;2023-12-04T14:42:46;6.60;99.90
48860;DHT22;34679;51.436;-2.518;2023-12-04T14:45:13;6.60;99.90
48860;DHT22;34679;51.436;-2.518;2023-12-04T14:47:39;6.70;99.90
48860;DHT22;34679;51.436;-2.518;2023-12-04T14:50:06;6.70;99.90
48860;DHT22;34679;51.436;-2.518;2023-12-04T14:52:32;6.60;99.90
48860;DHT22;34679;51.436;-2.518;2023-12-04T14:54:59;6.70;99.90
48860;DHT22;34679;51.436;-2.518;2023-12-04T14:57:34;6.70;99.90
48860;DHT22;34679;51.436;-2.518;2023-12-04T15:00:09;6.60;99.90
48860;DHT22;34679;51.436;-2.518;2023-12-04T15:02:36;6.60;99.90
48860;DHT22;34679;51.436;-2.518;2023-12-04T15:05:08;6.60;99.90
48860;DHT22;34679;51.436;-2.518;2023-12-04T15:07:34;6.60;99.90
48860;DHT22;34679;51.436;-2.518;2023-12-04T15:10:12;6.50;99.90
48860;DHT22;34679;51.436;-2.518;2023-12-04T15:12:43;6.50;99.90
48860;DHT22;34679;51.436;-2.518;2023-12-04T15:15:12;6.50;99.90
48860;DHT22;34679;51.436;-2.518;2023-12-04T15:18:01;6.50;99.90
48860;DHT22;34679;51.436;-2.518;2023-12-04T15:20:45;6.40;99.90
48860;DHT22;34679;51.436;-2.518;2023-12-04T15:23:11;6.40;99.90
48860;DHT22;34679;51.436;-2.518;2023-12-04T15:25:37;6.40;99.90
48860;DHT22;34679;51.436;-2.518;2023-12-04T15:28:03;6.40;99.90
48860;DHT22;34679;51.436;-2.518;2023-12-04T15:30:34;6.40;99.90
48860;DHT22;34679;51.436;-2.518;2023-12-04T15:32:59;6.30;99.90
48860;DHT22;34679;51.436;-2.518;2023-12-04T15:35:25;6.30;99.90